createdAt,value
2019-03-24T00:00:11.740Z,9.77
2019-03-24T00:02:41.169Z,9.65
2019-03-24T00:05:10.834Z,9.57
2019-03-24T00:07:40.078Z,9.49
2019-03-24T00:10:09.545Z,9.50
2019-03-24T00:12:38.745Z,9.51
2019-03-24T00:15:08.912Z,9.51
2019-03-24T00:17:38.019Z,9.48
2019-03-24T00:20:10.111Z,9.45
2019-03-24T00:22:40.287Z,9.44
2019-03-24T00:25:09.663Z,9.43
2019-03-24T00:27:38.959Z,9.46
2019-03-24T00:30:10.528Z,9.49
2019-03-24T00:32:39.786Z,9.42
2019-03-24T00:35:09.191Z,9.32
2019-03-24T00:37:38.390Z,9.26
2019-03-24T00:40:08.795Z,9.22
2019-03-24T00:42:38.118Z,9.17
2019-03-24T00:45:11.470Z,9.16
2019-03-24T00:47:40.690Z,9.10
2019-03-24T00:50:10.176Z,9.07
2019-03-24T00:52:39.366Z,9.05
2019-03-24T00:55:09.137Z,9.05
2019-03-24T00:57:38.356Z,9.05
2019-03-24T01:00:09.388Z,9.03
2019-03-24T01:02:38.825Z,8.99
2019-03-24T01:05:08.728Z,8.98
2019-03-24T01:07:38.178Z,9.01
2019-03-24T01:10:08.683Z,9.00
2019-03-24T01:12:37.904Z,8.95
2019-03-24T01:15:08.726Z,8.95
2019-03-24T01:17:38.841Z,8.90
2019-03-24T01:20:10.651Z,8.83
2019-03-24T01:22:42.095Z,8.80
2019-03-24T01:25:11.510Z,8.78
2019-03-24T01:27:40.643Z,8.78
2019-03-24T01:30:10.184Z,8.73
2019-03-24T01:32:39.349Z,8.69
2019-03-24T01:35:08.955Z,8.67
2019-03-24T01:37:38.201Z,8.62
2019-03-24T01:40:08.274Z,8.61
2019-03-24T01:42:37.486Z,8.62
2019-03-24T01:45:08.931Z,8.61
2019-03-24T01:47:38.178Z,8.60
2019-03-24T01:50:08.479Z,8.64
2019-03-24T01:52:37.736Z,8.68
2019-03-24T01:55:07.164Z,8.67
2019-03-24T01:57:36.331Z,8.65
2019-03-24T02:00:08.111Z,8.58
2019-03-24T02:02:37.246Z,8.57
2019-03-24T02:05:07.243Z,8.53
2019-03-24T02:07:36.503Z,8.41
2019-03-24T02:10:08.278Z,8.27
2019-03-24T02:12:37.414Z,8.14
2019-03-24T02:15:10.605Z,8.12
2019-03-24T02:17:39.803Z,8.12
2019-03-24T02:20:09.719Z,8.10
2019-03-24T02:22:38.909Z,8.09
2019-03-24T02:25:08.992Z,8.08
2019-03-24T02:27:38.303Z,8.08
2019-03-24T02:30:09.870Z,8.08
2019-03-24T02:32:39.086Z,8.10
2019-03-24T02:35:08.403Z,8.11
2019-03-24T02:37:37.569Z,8.11
2019-03-24T02:40:08.281Z,8.10
2019-03-24T02:42:37.492Z,8.11
2019-03-24T02:45:07.959Z,8.06
2019-03-24T02:47:37.106Z,8.01
2019-03-24T02:50:08.276Z,7.99
2019-03-24T02:52:37.447Z,7.94
2019-03-24T02:55:10.048Z,7.89
2019-03-24T02:57:39.180Z,7.85
2019-03-24T03:00:12.006Z,7.86
2019-03-24T03:02:41.224Z,7.88
2019-03-24T03:05:11.157Z,7.85
2019-03-24T03:07:40.372Z,7.89
2019-03-24T03:10:10.186Z,7.81
2019-03-24T03:12:39.390Z,7.48
2019-03-24T03:15:09.837Z,7.14
2019-03-24T03:17:39.042Z,7.14
2019-03-24T03:20:08.953Z,7.18
2019-03-24T03:22:38.295Z,7.20
2019-03-24T03:25:08.313Z,7.21
2019-03-24T03:27:37.736Z,7.24
2019-03-24T03:30:09.060Z,7.24
2019-03-24T03:32:38.283Z,7.26
2019-03-24T03:35:09.093Z,7.26
2019-03-24T03:37:38.280Z,7.26
2019-03-24T03:40:09.592Z,7.16
2019-03-24T03:42:39.902Z,7.21
2019-03-24T03:45:10.853Z,7.21
2019-03-24T03:47:40.471Z,7.16
2019-03-24T03:50:10.282Z,7.12
2019-03-24T03:52:39.456Z,7.18
2019-03-24T03:55:08.815Z,7.23
2019-03-24T03:57:37.950Z,7.25
2019-03-24T04:00:09.077Z,7.20
2019-03-24T04:02:38.277Z,7.17
2019-03-24T04:05:07.484Z,7.16
2019-03-24T04:07:36.688Z,7.11
2019-03-24T04:10:06.306Z,7.08
2019-03-24T04:12:35.450Z,7.07
2019-03-24T04:15:07.473Z,7.10
2019-03-24T04:17:36.693Z,7.13
2019-03-24T04:20:06.814Z,7.13
2019-03-24T04:22:36.016Z,7.10
2019-03-24T04:25:06.824Z,7.11
2019-03-24T04:27:35.975Z,7.18
2019-03-24T04:30:07.292Z,7.22
2019-03-24T04:32:36.544Z,7.22
2019-03-24T04:35:07.509Z,7.21
2019-03-24T04:37:36.792Z,7.20
2019-03-24T04:40:07.710Z,7.19
2019-03-24T04:42:36.830Z,7.18
2019-03-24T04:45:06.963Z,7.20
2019-03-24T04:47:36.101Z,7.19
2019-03-24T04:50:08.226Z,7.14
2019-03-24T04:52:37.477Z,7.15
2019-03-24T04:55:09.856Z,7.14
2019-03-24T04:57:39.075Z,7.14
2019-03-24T05:00:10.323Z,7.18
2019-03-24T05:02:39.504Z,7.20
2019-03-24T05:05:09.029Z,7.24
2019-03-24T05:07:38.780Z,7.28
2019-03-24T05:10:09.341Z,7.36
2019-03-24T05:12:38.409Z,7.45
2019-03-24T05:15:07.854Z,7.45
2019-03-24T05:17:37.003Z,7.54
2019-03-24T05:20:07.220Z,7.62
2019-03-24T05:22:36.383Z,7.71
2019-03-24T05:25:06.018Z,7.80
2019-03-24T05:27:35.153Z,7.94
2019-03-24T05:30:06.851Z,8.06
2019-03-24T05:32:36.055Z,8.17
2019-03-24T05:35:07.575Z,8.29
2019-03-24T05:37:36.842Z,8.45
2019-03-24T05:40:06.470Z,8.61
2019-03-24T05:42:35.680Z,8.69
2019-03-24T05:45:06.628Z,8.82
2019-03-24T05:47:37.406Z,8.97
2019-03-24T05:50:08.522Z,9.16
2019-03-24T05:52:37.779Z,9.32
2019-03-24T05:55:07.681Z,9.47
2019-03-24T05:57:36.750Z,9.71
2019-03-24T06:00:07.787Z,9.86
2019-03-24T06:02:36.921Z,9.86
2019-03-24T06:05:06.930Z,9.99
2019-03-24T06:07:36.103Z,10.23
2019-03-24T06:10:07.378Z,10.47
2019-03-24T06:12:36.602Z,10.23
2019-03-24T06:15:08.328Z,10.45
2019-03-24T06:17:47.169Z,10.43
2019-03-24T06:20:08.692Z,10.52
2019-03-24T06:22:37.915Z,10.71
2019-03-24T06:25:10.121Z,10.73
2019-03-24T06:27:39.334Z,11.02
2019-03-24T06:30:09.190Z,11.31
2019-03-24T06:32:38.416Z,11.22
2019-03-24T06:35:07.626Z,11.38
2019-03-24T06:37:36.895Z,11.49
2019-03-24T06:40:06.819Z,11.58
2019-03-24T06:42:35.945Z,11.82
2019-03-24T06:45:07.306Z,11.85
2019-03-24T06:47:36.523Z,12.05
2019-03-24T06:50:07.644Z,12.22
2019-03-24T06:52:36.907Z,12.27
2019-03-24T06:55:06.529Z,12.45
2019-03-24T06:57:35.753Z,12.49
2019-03-24T07:00:07.010Z,12.63
2019-03-24T07:02:36.525Z,12.96
2019-03-24T07:05:06.809Z,13.22
2019-03-24T07:07:36.059Z,13.55
2019-03-24T07:10:07.372Z,13.58
2019-03-24T07:12:36.686Z,13.59
2019-03-24T07:15:07.730Z,13.66
2019-03-24T07:17:37.730Z,14.11
2019-03-24T07:20:07.671Z,14.32
2019-03-24T07:22:36.931Z,14.57
2019-03-24T07:25:07.409Z,14.89
2019-03-24T07:27:36.613Z,14.85
2019-03-24T07:30:08.189Z,15.08
2019-03-24T07:32:37.409Z,15.18
2019-03-24T07:35:08.035Z,15.13
2019-03-24T07:37:37.327Z,15.05
2019-03-24T07:40:08.808Z,15.42
2019-03-24T07:42:38.067Z,15.72
2019-03-24T07:45:08.670Z,15.94
2019-03-24T07:47:37.885Z,16.08
2019-03-24T07:50:09.501Z,16.40
2019-03-24T07:52:38.988Z,16.20
2019-03-24T07:55:08.514Z,16.41
2019-03-24T07:57:37.736Z,16.81
2019-03-24T08:00:09.212Z,17.34
2019-03-24T08:02:38.365Z,16.99
2019-03-24T08:05:07.837Z,17.59
2019-03-24T08:07:37.222Z,17.70
2019-03-24T08:10:07.247Z,17.68
2019-03-24T08:12:36.524Z,17.53
2019-03-24T08:15:06.337Z,18.03
2019-03-24T08:17:35.719Z,18.02
2019-03-24T08:20:06.669Z,18.59
2019-03-24T08:22:35.891Z,18.72
2019-03-24T08:25:06.722Z,18.62
2019-03-24T08:27:35.942Z,19.05
2019-03-24T08:30:06.729Z,18.35
2019-03-24T08:32:35.887Z,18.58
2019-03-24T08:35:06.697Z,19.30
2019-03-24T08:37:35.913Z,19.57
2019-03-24T08:40:07.487Z,19.50
2019-03-24T08:42:36.751Z,19.63
2019-03-24T08:45:07.064Z,19.67
2019-03-24T08:47:36.209Z,20.05
2019-03-24T08:50:07.816Z,20.29
2019-03-24T08:52:37.127Z,20.19
2019-03-24T08:55:06.863Z,20.01
2019-03-24T08:57:36.124Z,20.14
2019-03-24T09:00:06.950Z,20.74
2019-03-24T09:02:36.112Z,21.22
2019-03-24T09:05:06.657Z,20.82
2019-03-24T09:07:36.006Z,20.77
2019-03-24T09:10:07.449Z,20.93
2019-03-24T09:12:36.722Z,20.59
2019-03-24T09:15:07.847Z,20.47
2019-03-24T09:17:37.180Z,20.80
2019-03-24T09:20:08.368Z,21.12
2019-03-24T09:22:37.462Z,20.76
2019-03-24T09:25:07.995Z,20.88
2019-03-24T09:27:37.289Z,21.37
2019-03-24T09:30:12.200Z,21.53
2019-03-24T09:32:41.372Z,21.57
2019-03-24T09:35:10.575Z,21.74
2019-03-24T09:37:39.788Z,22.09
2019-03-24T09:40:11.908Z,22.10
2019-03-24T09:42:41.030Z,21.48
2019-03-24T09:45:10.229Z,21.71
2019-03-24T09:47:39.434Z,21.11
2019-03-24T09:50:08.973Z,21.27
2019-03-24T09:52:38.126Z,21.23
2019-03-24T09:55:07.736Z,22.12
2019-03-24T09:57:36.986Z,22.91
2019-03-24T10:00:06.505Z,23.64
2019-03-24T10:02:35.644Z,23.96
2019-03-24T10:05:05.991Z,24.01
2019-03-24T10:07:35.241Z,24.84
2019-03-24T10:10:06.663Z,24.73
2019-03-24T10:12:35.851Z,23.88
2019-03-24T10:15:08.224Z,22.94
2019-03-24T10:17:37.481Z,22.90
2019-03-24T10:20:07.161Z,22.50
2019-03-24T10:22:37.212Z,22.76
2019-03-24T10:25:07.728Z,23.46
2019-03-24T10:27:37.002Z,24.83
2019-03-24T10:30:08.615Z,25.57
2019-03-24T10:32:37.861Z,26.22
2019-03-24T10:35:08.709Z,25.78
2019-03-24T10:37:37.958Z,25.88
2019-03-24T10:40:07.865Z,24.80
2019-03-24T10:42:37.887Z,25.31
2019-03-24T10:45:08.299Z,26.50
2019-03-24T10:47:37.509Z,26.77
2019-03-24T10:50:09.003Z,26.62
2019-03-24T10:52:38.256Z,27.26
2019-03-24T10:55:11.616Z,25.58
2019-03-24T10:57:40.960Z,25.62
2019-03-24T11:00:12.737Z,25.04
2019-03-24T11:02:42.020Z,24.34
2019-03-24T11:05:11.581Z,25.01
2019-03-24T11:07:40.813Z,25.31
2019-03-24T11:10:11.127Z,25.14
2019-03-24T11:12:40.379Z,25.13
2019-03-24T11:15:10.989Z,24.67
2019-03-24T11:17:40.214Z,25.10
2019-03-24T11:20:10.084Z,24.39
2019-03-24T11:22:39.308Z,23.97
2019-03-24T11:25:10.181Z,24.80
2019-03-24T11:27:39.517Z,25.61
2019-03-24T11:30:11.630Z,26.07
2019-03-24T11:32:41.740Z,27.40
2019-03-24T11:35:11.766Z,28.23
2019-03-24T11:37:40.966Z,28.71
2019-03-24T11:40:11.256Z,29.30
2019-03-24T11:42:40.549Z,30.05
2019-03-24T11:45:11.271Z,29.83
2019-03-24T11:47:40.502Z,29.19
2019-03-24T11:50:10.567Z,29.13
2019-03-24T11:52:39.904Z,29.34
2019-03-24T11:55:09.866Z,29.98
2019-03-24T11:57:39.352Z,29.66
2019-03-24T12:00:14.261Z,30.01
2019-03-24T12:02:43.485Z,29.82
2019-03-24T12:05:12.853Z,29.94
2019-03-24T12:07:42.070Z,29.83
2019-03-24T12:10:11.846Z,30.02
2019-03-24T12:12:41.175Z,30.76
2019-03-24T12:15:11.006Z,31.22
2019-03-24T12:17:40.143Z,30.97
2019-03-24T12:20:10.088Z,31.23
2019-03-24T12:22:39.325Z,31.52
2019-03-24T12:25:09.442Z,31.81
2019-03-24T12:27:38.778Z,32.39
2019-03-24T12:30:09.402Z,32.81
2019-03-24T12:32:38.622Z,32.71
2019-03-24T12:35:09.488Z,31.36
2019-03-24T12:37:38.688Z,31.65
2019-03-24T12:40:10.288Z,30.93
2019-03-24T12:42:39.830Z,30.86
2019-03-24T12:45:10.387Z,30.75
2019-03-24T12:47:39.628Z,29.86
2019-03-24T12:50:10.373Z,30.89
2019-03-24T12:52:39.686Z,31.56
2019-03-24T12:55:09.643Z,31.65
2019-03-24T12:57:38.898Z,31.76
2019-03-24T13:00:10.610Z,31.64
2019-03-24T13:02:40.079Z,31.03
2019-03-24T13:05:10.361Z,31.29
2019-03-24T13:07:39.593Z,30.89
2019-03-24T13:10:09.935Z,29.25
2019-03-24T13:12:39.175Z,28.73
2019-03-24T13:15:09.504Z,30.12
2019-03-24T13:17:38.730Z,31.34
2019-03-24T13:20:19.530Z,31.00
2019-03-24T13:22:41.114Z,29.77
2019-03-24T13:25:10.626Z,29.18
2019-03-24T13:27:39.872Z,29.64
2019-03-24T13:30:10.479Z,30.31
2019-03-24T13:32:39.675Z,30.34
2019-03-24T13:35:08.897Z,29.33
2019-03-24T13:37:38.205Z,28.98
2019-03-24T13:40:07.700Z,28.01
2019-03-24T13:42:36.952Z,28.03
2019-03-24T13:45:07.257Z,27.71
2019-03-24T13:47:37.487Z,28.19
2019-03-24T13:50:07.993Z,28.36
2019-03-24T13:52:37.826Z,28.49
2019-03-24T13:55:08.137Z,29.20
2019-03-24T13:57:37.323Z,28.37
2019-03-24T14:00:09.896Z,28.83
2019-03-24T14:02:39.130Z,28.67
2019-03-24T14:05:08.344Z,28.85
2019-03-24T14:07:37.606Z,28.98
2019-03-24T14:10:08.067Z,29.68
2019-03-24T14:12:37.209Z,29.60
2019-03-24T14:15:07.359Z,30.08
2019-03-24T14:17:36.695Z,29.98
2019-03-24T14:20:09.484Z,30.38
2019-03-24T14:22:38.688Z,30.55
2019-03-24T14:25:08.541Z,29.95
2019-03-24T14:27:37.753Z,29.71
2019-03-24T14:30:08.626Z,28.77
2019-03-24T14:32:37.865Z,28.31
2019-03-24T14:35:07.389Z,28.93
2019-03-24T14:37:36.604Z,29.18
2019-03-24T14:40:07.468Z,29.13
2019-03-24T14:42:36.667Z,29.68
2019-03-24T14:45:09.895Z,29.69
2019-03-24T14:47:39.183Z,29.80
2019-03-24T14:50:09.302Z,30.14
2019-03-24T14:52:38.506Z,30.70
2019-03-24T14:55:08.027Z,30.98
2019-03-24T14:57:37.263Z,31.20
2019-03-24T15:00:11.175Z,31.41
2019-03-24T15:02:40.971Z,31.51
2019-03-24T15:05:10.657Z,30.99
2019-03-24T15:07:39.959Z,30.86
2019-03-24T15:10:09.753Z,31.34
2019-03-24T15:12:38.951Z,31.87
2019-03-24T15:15:08.159Z,31.76
2019-03-24T15:17:37.465Z,31.96
2019-03-24T15:20:07.733Z,30.66
2019-03-24T15:22:36.930Z,29.97
2019-03-24T15:25:06.951Z,30.94
2019-03-24T15:27:36.016Z,31.61
2019-03-24T15:30:07.316Z,32.88
2019-03-24T15:32:36.845Z,33.62
2019-03-24T15:35:07.169Z,34.14
2019-03-24T15:37:36.458Z,34.54
2019-03-24T15:40:07.374Z,34.76
2019-03-24T15:42:36.674Z,34.53
2019-03-24T15:45:09.680Z,33.74
2019-03-24T15:47:40.436Z,33.53
2019-03-24T15:50:11.602Z,33.80
2019-03-24T15:52:42.416Z,33.67
2019-03-24T15:55:11.638Z,34.23
2019-03-24T15:57:40.871Z,32.72
2019-03-24T16:00:11.475Z,31.14
2019-03-24T16:02:42.029Z,31.45
2019-03-24T16:05:11.523Z,31.30
2019-03-24T16:07:42.376Z,30.80
2019-03-24T16:10:13.634Z,30.95
2019-03-24T16:12:42.767Z,31.41
2019-03-24T16:15:11.972Z,32.08
2019-03-24T16:17:41.211Z,32.13
2019-03-24T16:20:10.810Z,31.92
2019-03-24T16:22:40.041Z,31.63
2019-03-24T16:25:09.579Z,31.04
2019-03-24T16:27:38.841Z,30.02
2019-03-24T16:30:09.459Z,29.33
2019-03-24T16:32:38.705Z,29.17
2019-03-24T16:35:08.076Z,27.91
2019-03-24T16:37:37.295Z,26.41
2019-03-24T16:40:07.603Z,25.42
2019-03-24T16:42:36.800Z,24.71
2019-03-24T16:45:06.513Z,24.15
2019-03-24T16:47:35.843Z,23.33
2019-03-24T16:50:06.951Z,22.80
2019-03-24T16:52:36.160Z,22.53
2019-03-24T16:55:07.649Z,22.22
2019-03-24T16:57:36.811Z,21.90
2019-03-24T17:00:09.716Z,21.72
2019-03-24T17:02:41.440Z,21.52
2019-03-24T17:05:10.758Z,21.32
2019-03-24T17:07:40.002Z,21.13
2019-03-24T17:10:10.219Z,20.94
2019-03-24T17:12:39.461Z,20.75
2019-03-24T17:15:09.649Z,20.56
2019-03-24T17:17:38.988Z,20.40
2019-03-24T17:20:09.490Z,20.20
2019-03-24T17:22:38.637Z,20.08
2019-03-24T17:25:08.711Z,19.89
2019-03-24T17:27:38.345Z,19.77
2019-03-24T17:30:12.066Z,19.68
2019-03-24T17:32:41.254Z,19.49
2019-03-24T17:35:10.991Z,19.30
2019-03-24T17:37:40.220Z,19.17
2019-03-24T17:40:12.515Z,19.02
2019-03-24T17:42:41.693Z,18.89
2019-03-24T17:45:12.011Z,18.85
2019-03-24T17:47:42.804Z,18.71
2019-03-24T17:50:12.670Z,18.56
2019-03-24T17:52:41.961Z,18.44
2019-03-24T17:55:11.888Z,18.28
2019-03-24T17:57:41.136Z,18.09
2019-03-24T18:00:13.882Z,17.93
2019-03-24T18:02:43.168Z,17.78
2019-03-24T18:05:12.923Z,17.68
2019-03-24T18:07:42.196Z,17.60
2019-03-24T18:10:12.475Z,17.45
2019-03-24T18:12:43.211Z,17.28
2019-03-24T18:15:13.233Z,17.22
2019-03-24T18:17:43.322Z,17.16
2019-03-24T18:20:14.379Z,17.12
2019-03-24T18:22:43.754Z,17.08
2019-03-24T18:25:13.364Z,17.07
2019-03-24T18:27:42.599Z,17.02
2019-03-24T18:30:12.587Z,16.92
2019-03-24T18:32:42.062Z,16.77
2019-03-24T18:35:11.811Z,16.66
2019-03-24T18:37:41.163Z,16.65
2019-03-24T18:40:11.660Z,16.65
2019-03-24T18:42:41.061Z,16.61
2019-03-24T18:45:12.287Z,16.53
2019-03-24T18:47:41.637Z,16.44
2019-03-24T18:50:11.815Z,16.30
2019-03-24T18:52:41.037Z,16.21
2019-03-24T18:55:11.169Z,16.18
2019-03-24T18:57:40.554Z,16.13
2019-03-24T19:00:11.974Z,16.07
2019-03-24T19:02:42.689Z,16.05
2019-03-24T19:05:12.138Z,16.00
2019-03-24T19:07:41.477Z,15.97
2019-03-24T19:10:14.193Z,15.92
2019-03-24T19:12:43.488Z,15.94
2019-03-24T19:15:15.290Z,15.92
2019-03-24T19:17:44.603Z,15.89
2019-03-24T19:20:14.601Z,15.80
2019-03-24T19:22:43.897Z,15.64
2019-03-24T19:25:13.771Z,15.49
2019-03-24T19:27:43.005Z,15.38
2019-03-24T19:30:15.376Z,15.32
2019-03-24T19:32:44.669Z,15.32
2019-03-24T19:35:14.523Z,15.36
2019-03-24T19:37:45.973Z,15.32
2019-03-24T19:40:29.818Z,15.27
2019-03-24T19:42:59.163Z,15.22
2019-03-24T19:45:28.370Z,15.17
2019-03-24T19:47:57.684Z,15.13
2019-03-24T19:50:27.135Z,15.04
2019-03-24T19:52:56.440Z,14.94
2019-03-24T19:55:25.787Z,14.87
2019-03-24T19:57:55.467Z,14.80
2019-03-24T20:00:24.863Z,14.77
2019-03-24T20:02:54.229Z,14.75
2019-03-24T20:05:23.601Z,14.80
2019-03-24T20:07:52.984Z,14.84
2019-03-24T20:10:22.407Z,14.89
2019-03-24T20:12:51.768Z,14.98
2019-03-24T20:15:21.229Z,15.00
2019-03-24T20:17:50.851Z,14.93
2019-03-24T20:20:20.345Z,14.82
2019-03-24T20:22:56.460Z,14.71
2019-03-24T20:25:20.826Z,14.64
2019-03-24T20:27:50.126Z,14.63
2019-03-24T20:30:19.873Z,14.66
2019-03-24T20:32:49.132Z,14.69
2019-03-24T20:35:18.529Z,14.76
2019-03-24T20:37:47.940Z,14.77
2019-03-24T20:40:17.214Z,14.84
2019-03-24T20:42:46.501Z,14.84
2019-03-24T20:45:16.102Z,14.88
2019-03-24T20:47:45.767Z,14.94
2019-03-24T20:50:15.703Z,14.97
2019-03-24T20:52:45.121Z,14.97
2019-03-24T20:55:14.671Z,14.99
2019-03-24T20:57:44.021Z,14.98
2019-03-24T21:00:13.815Z,15.00
2019-03-24T21:02:43.170Z,14.99
2019-03-24T21:05:12.419Z,14.92
2019-03-24T21:07:41.669Z,14.84
2019-03-24T21:10:15.211Z,14.73
2019-03-24T21:12:44.427Z,14.66
2019-03-24T21:15:13.952Z,14.62
2019-03-24T21:17:43.289Z,14.56
2019-03-24T21:20:12.604Z,14.49
2019-03-24T21:22:41.932Z,14.45
2019-03-24T21:25:11.398Z,14.44
2019-03-24T21:27:40.642Z,14.42
2019-03-24T21:30:12.215Z,14.37
2019-03-24T21:32:41.587Z,14.40
2019-03-24T21:35:11.489Z,14.43
2019-03-24T21:37:40.700Z,14.44
2019-03-24T21:40:10.100Z,14.45
2019-03-24T21:42:39.388Z,14.49
2019-03-24T21:45:08.811Z,14.50
2019-03-24T21:47:38.118Z,14.51
2019-03-24T21:50:08.409Z,14.45
2019-03-24T21:52:37.627Z,14.36
2019-03-24T21:55:06.965Z,14.29
2019-03-24T21:57:36.244Z,14.21
2019-03-24T22:00:10.076Z,14.14
2019-03-24T22:02:39.304Z,14.24
2019-03-24T22:05:08.720Z,14.36
2019-03-24T22:07:37.941Z,14.39
2019-03-24T22:10:07.799Z,14.43
2019-03-24T22:12:37.074Z,14.35
2019-03-24T22:15:10.002Z,14.16
2019-03-24T22:17:39.231Z,14.05
2019-03-24T22:20:08.559Z,14.15
2019-03-24T22:22:37.695Z,14.28
2019-03-24T22:25:07.241Z,14.36
2019-03-24T22:27:36.476Z,14.35
2019-03-24T22:30:08.442Z,14.35
2019-03-24T22:32:37.685Z,14.28
2019-03-24T22:35:08.000Z,14.23
2019-03-24T22:37:37.204Z,14.18
2019-03-24T22:40:20.121Z,14.13
2019-03-24T22:42:49.267Z,14.14
2019-03-24T22:45:18.479Z,14.19
2019-03-24T22:47:48.014Z,14.28
2019-03-24T22:50:17.288Z,14.32
2019-03-24T22:52:46.563Z,14.29
2019-03-24T22:55:16.212Z,14.07
2019-03-24T22:57:45.398Z,13.84
2019-03-24T23:00:33.001Z,13.66
2019-03-24T23:03:02.136Z,13.66
2019-03-24T23:05:31.284Z,13.62
2019-03-24T23:08:00.536Z,13.64
2019-03-24T23:10:29.679Z,13.66
2019-03-24T23:12:58.824Z,13.57
2019-03-24T23:15:28.067Z,13.49
2019-03-24T23:17:57.417Z,13.47
2019-03-24T23:20:26.728Z,13.51
2019-03-24T23:22:55.981Z,13.51
2019-03-24T23:25:25.353Z,13.47
2019-03-24T23:27:54.553Z,13.53
2019-03-24T23:30:23.805Z,13.67
2019-03-24T23:32:53.126Z,13.81
2019-03-24T23:35:22.180Z,13.94
2019-03-24T23:37:51.553Z,14.05
2019-03-24T23:40:20.675Z,14.11
2019-03-24T23:42:49.825Z,14.11
2019-03-24T23:45:19.090Z,14.13
2019-03-24T23:47:48.215Z,14.04
2019-03-24T23:50:17.432Z,13.95
2019-03-24T23:52:46.729Z,13.88
2019-03-24T23:55:15.878Z,13.82
2019-03-24T23:57:45.028Z,13.78
